Time;durP1;ratioP1;P1;durP2;ratioP2;P2;SDS_P1;SDS_P2;PMS_P1;PMS_P2;Temp;Humidity;BMP_temperature;BMP_pressure;BME280_temperature;BME280_humidity;BME280_pressure;Samples;Min_cycle;Max_cycle;Signal;HPM_P1;HPM_P2
2023/12/19 00:00:12;;;;;;;;;27.75;25.50;;;;;5.40;100.00;102971.13;4998870;28;45537;-80
2023/12/19 00:02:39;;;;;;;;;34.50;23.25;;;;;5.49;100.00;102972.09;4991487;28;45366;-80
2023/12/19 00:05:09;;;;;;;;;30.50;23.75;;;;;5.40;100.00;102960.63;5001683;28;45306;-80
2023/12/19 00:07:35;;;;;;;;;33.00;25.25;;;;;5.47;100.00;102965.94;4998196;28;45421;-80
2023/12/19 00:10:00;;;;;;;;;34.25;22.50;;;;;5.42;100.00;102951.91;5017847;28;45469;-79
2023/12/19 00:12:25;;;;;;;;;23.50;21.50;;;;;5.47;100.00;102959.78;5019304;28;46388;-80
2023/12/19 00:14:51;;;;;;;;;28.00;23.75;;;;;5.42;100.00;102945.78;5001105;28;48005;-80
2023/12/19 00:17:16;;;;;;;;;26.25;22.00;;;;;5.47;100.00;102939.69;5018763;28;50265;-80
2023/12/19 00:19:42;;;;;;;;;23.00;19.75;;;;;5.40;100.00;102918.66;5024751;28;45295;-81
2023/12/19 00:22:07;;;;;;;;;19.50;18.00;;;;;5.47;100.00;102944.94;5019117;28;55374;-80
2023/12/19 00:24:32;;;;;;;;;24.25;22.75;;;;;5.40;100.00;102932.63;5005728;28;51116;-80
2023/12/19 00:26:57;;;;;;;;;21.50;19.25;;;;;5.43;100.00;102937.91;5022901;28;45536;-80
2023/12/19 00:29:23;;;;;;;;;27.50;23.75;;;;;5.32;100.00;102921.19;5020833;28;45251;-80
2023/12/19 00:31:48;;;;;;;;;27.75;24.75;;;;;5.43;100.00;102932.66;5006874;28;56731;-81
2023/12/19 00:34:15;;;;;;;;;30.50;21.25;;;;;5.45;100.00;102924.81;5019571;28;45467;-80
2023/12/19 00:36:40;;;;;;;;;23.25;21.00;;;;;5.44;100.00;102921.28;5026252;28;45531;-80
2023/12/19 00:39:05;;;;;;;;;24.50;21.00;;;;;5.33;100.00;102898.47;5032822;28;45624;-80
2023/12/19 00:41:31;;;;;;;;;32.50;27.75;;;;;5.38;100.00;102899.38;5014096;28;45541;-80
2023/12/19 00:43:56;;;;;;;;;20.75;19.25;;;;;5.46;100.00;102914.34;5002372;28;45414;-80
2023/12/19 00:46:22;;;;;;;;;22.00;19.25;;;;;5.47;100.00;102904.69;5028727;28;45367;-81
2023/12/19 00:48:47;;;;;;;;;27.75;22.00;;;;;5.41;100.00;102902.91;5019900;28;45424;-81
2023/12/19 00:51:13;;;;;;;;;20.75;18.00;;;;;5.48;100.00;102909.06;5018809;28;45391;-80
2023/12/19 00:53:39;;;;;;;;;22.25;19.50;;;;;5.39;100.00;102893.28;5000803;28;45311;-80
2023/12/19 00:56:09;;;;;;;;;20.00;18.50;;;;;5.47;100.00;102902.06;5005669;28;45496;-80
2023/12/19 00:58:38;;;;;;;;;25.75;21.50;;;;;5.39;100.00;102888.91;5018729;28;45422;-81
2023/12/19 01:01:05;;;;;;;;;20.50;18.50;;;;;5.46;100.00;102908.19;5015522;28;47042;-80
2023/12/19 01:03:31;;;;;;;;;17.50;13.75;;;;;5.55;100.00;102924.88;5019344;28;45499;-80
2023/12/19 01:05:56;;;;;;;;;23.25;13.25;;;;;5.42;100.00;102891.56;5018954;28;45281;-80
2023/12/19 01:08:22;;;;;;;;;22.50;18.50;;;;;5.45;100.00;102895.94;5023394;28;45510;-80
2023/12/19 01:10:47;;;;;;;;;19.67;18.33;;;;;5.37;100.00;102897.59;5000502;28;45277;-79
2023/12/19 01:13:12;;;;;;;;;20.50;17.75;;;;;5.54;100.00;102938.88;5010521;28;45206;-79
2023/12/19 01:15:38;;;;;;;;;20.50;16.25;;;;;5.51;100.00;102927.47;5020551;28;45602;-80
2023/12/19 01:18:03;;;;;;;;;25.75;22.00;;;;;5.60;100.00;102944.16;5003884;28;45528;-80
2023/12/19 01:20:29;;;;;;;;;28.50;22.75;;;;;5.48;100.00;102919.56;5002795;28;47391;-80
2023/12/19 01:22:54;;;;;;;;;20.50;18.25;;;;;5.59;100.00;102934.56;5017295;28;45481;-80
2023/12/19 01:25:19;;;;;;;;;23.25;19.25;;;;;5.57;100.00;102928.41;5017564;28;45434;-80
2023/12/19 01:27:45;;;;;;;;;21.00;17.25;;;;;5.64;100.00;102939.81;5022612;28;45467;-81
2023/12/19 01:30:10;;;;;;;;;20.75;19.00;;;;;5.43;100.00;102898.53;5021484;28;54964;-80
2023/12/19 01:32:36;;;;;;;;;20.25;19.50;;;;;5.61;100.00;102918.78;5023428;28;45445;-80
2023/12/19 01:35:01;;;;;;;;;25.75;20.75;;;;;5.50;100.00;102895.09;5025689;28;45364;-80
2023/12/19 01:37:27;;;;;;;;;28.25;18.25;;;;;5.63;100.00;102903.94;5022457;28;45464;-80
2023/12/19 01:39:54;;;;;;;;;23.00;21.50;;;;;5.67;100.00;102903.09;5003328;28;47143;-80
2023/12/19 01:42:19;;;;;;;;;23.00;17.00;;;;;5.67;100.00;102901.34;5021248;28;45445;-81
2023/12/19 01:45:12;;;;;;;;;24.50;17.75;;;;;5.69;100.00;102883.84;5022637;28;51005;-79
2023/12/19 01:47:40;;;;;;;;;17.25;16.00;;;;;5.72;100.00;102889.16;5013531;28;45807;-80
2023/12/19 01:50:07;;;;;;;;;20.75;20.75;;;;;5.59;100.00;102858.44;5023075;28;45448;-80
2023/12/19 01:52:33;;;;;;;;;17.50;16.25;;;;;5.67;100.00;102880.34;4996307;28;45422;-80
2023/12/19 01:54:58;;;;;;;;;25.50;18.75;;;;;5.75;100.00;102888.28;5004214;28;45615;-80
2023/12/19 01:57:24;;;;;;;;;18.00;16.75;;;;;5.76;100.00;102901.41;5005423;28;45630;-80
2023/12/19 01:59:50;;;;;;;;;21.50;19.25;;;;;5.81;100.00;102905.81;5021401;28;45478;-80
2023/12/19 02:02:15;;;;;;;;;26.25;21.25;;;;;5.72;100.00;102889.16;5020278;28;45381;-80
2023/12/19 02:04:41;;;;;;;;;27.75;21.75;;;;;5.85;100.00;102911.09;5022199;28;45420;-80
2023/12/19 02:07:06;;;;;;;;;25.00;22.50;;;;;5.72;100.00;102885.63;5000025;28;45465;-78
2023/12/19 02:09:32;;;;;;;;;25.75;23.00;;;;;5.83;100.00;102897.06;5016477;28;50402;-78
2023/12/19 02:11:58;;;;;;;;;25.25;20.00;;;;;5.87;100.00;102908.50;5019815;28;45349;-78
2023/12/19 02:14:24;;;;;;;;;23.50;19.25;;;;;5.82;100.00;102900.56;5021553;28;45359;-79
2023/12/19 02:16:49;;;;;;;;;25.50;21.25;;;;;5.90;100.00;102908.50;5020786;28;45423;-78
2023/12/19 02:19:15;;;;;;;;;27.00;22.50;;;;;5.80;100.00;102889.16;5021023;28;45992;-79
2023/12/19 02:21:40;;;;;;;;;23.75;20.75;;;;;5.95;100.00;102914.69;5003970;28;45515;-80
2023/12/19 02:24:06;;;;;;;;;19.25;18.25;;;;;5.92;100.00;102898.91;5003926;28;45456;-79
2023/12/19 02:26:31;;;;;;;;;22.50;17.50;;;;;5.84;100.00;102890.94;5001437;28;45774;-79
2023/12/19 02:28:57;;;;;;;;;18.50;12.00;;;;;5.95;100.00;102891.06;5021464;28;45461;-79
2023/12/19 02:31:22;;;;;;;;;18.00;17.00;;;;;5.98;100.00;102894.56;5020093;28;45289;-78
2023/12/19 02:33:48;;;;;;;;;22.75;18.75;;;;;5.88;100.00;102870.88;4999630;28;45942;-79
2023/12/19 02:36:14;;;;;;;;;20.25;18.00;;;;;5.98;100.00;102877.94;5020636;28;45417;-79
2023/12/19 02:38:40;;;;;;;;;18.50;18.00;;;;;5.94;100.00;102869.16;5021566;28;45425;-80
2023/12/19 02:41:07;;;;;;;;;24.00;20.50;;;;;5.97;100.00;102870.91;5002244;28;45624;-79
2023/12/19 02:43:34;;;;;;;;;20.75;17.25;;;;;6.09;100.00;102887.59;5002652;28;45470;-79
2023/12/19 02:45:59;;;;;;;;;24.75;18.00;;;;;5.99;100.00;102877.91;5003695;28;45498;-79
2023/12/19 02:48:24;;;;;;;;;22.25;20.75;;;;;6.02;100.00;102872.69;5002732;28;45456;-78
2023/12/19 02:50:50;;;;;;;;;18.75;17.00;;;;;6.09;100.00;102870.97;5021999;28;49287;-78
2023/12/19 02:53:15;;;;;;;;;25.50;17.75;;;;;6.14;100.00;102869.25;5021166;28;45341;-79
2023/12/19 02:55:41;;;;;;;;;16.33;16.33;;;;;6.04;100.00;102849.94;5020338;28;47676;-79
2023/12/19 02:58:07;;;;;;;;;19.00;13.75;;;;;6.04;100.00;102834.19;5020233;28;46035;-78
2023/12/19 03:00:32;;;;;;;;;20.00;16.25;;;;;6.11;100.00;102856.09;5026470;28;45290;-78
2023/12/19 03:02:58;;;;;;;;;18.50;14.50;;;;;6.18;100.00;102857.88;4994676;28;45440;-78
2023/12/19 03:05:24;;;;;;;;;24.00;19.00;;;;;6.19;100.00;102859.63;5003287;28;45624;-79
2023/12/19 03:07:50;;;;;;;;;20.67;14.67;;;;;6.08;100.00;102837.72;5003440;28;46664;-78
2023/12/19 03:10:15;;;;;;;;;23.50;21.25;;;;;6.18;100.00;102869.25;4999876;28;45401;-78
2023/12/19 03:12:40;;;;;;;;;22.50;17.75;;;;;6.13;100.00;102860.47;5004863;28;45460;-78
2023/12/19 03:15:06;;;;;;;;;24.00;19.00;;;;;6.09;100.00;102842.06;5020778;28;47858;-79
2023/12/19 03:17:31;;;;;;;;;23.00;16.75;;;;;6.21;100.00;102847.38;5019720;28;45464;-78
2023/12/19 03:19:58;;;;;;;;;22.75;16.00;;;;;6.22;100.00;102847.38;5001678;28;45319;-78
2023/12/19 03:22:23;;;;;;;;;30.67;21.00;;;;;6.16;100.00;102826.34;5001937;28;45830;-78
2023/12/19 03:24:51;;;;;;;;;23.25;22.50;;;;;6.15;100.00;102821.94;5020187;28;45459;-78
2023/12/19 03:27:16;;;;;;;;;22.75;15.75;;;;;6.15;100.00;102815.84;5019695;28;45350;-81
2023/12/19 03:29:42;;;;;;;;;22.00;17.67;;;;;6.18;100.00;102815.84;5001936;28;45457;-79
2023/12/19 03:32:08;;;;;;;;;23.00;18.33;;;;;6.15;100.00;102802.72;5022055;28;45424;-79
2023/12/19 03:34:35;;;;;;;;;23.50;20.25;;;;;6.29;100.00;102835.13;5029153;28;45498;-79
2023/12/19 03:37:00;;;;;;;;;26.25;20.25;;;;;6.22;100.00;102815.84;5020473;28;46388;-78
2023/12/19 03:39:26;;;;;;;;;21.50;16.25;;;;;6.30;100.00;102831.63;5020465;28;45317;-79
2023/12/19 03:41:51;;;;;;;;;18.25;16.25;;;;;6.27;100.00;102827.25;5016847;28;45277;-79
2023/12/19 03:44:16;;;;;;;;;21.50;17.75;;;;;6.26;100.00;102822.00;5003393;28;45559;-79
2023/12/19 03:46:42;;;;;;;;;1.25;1.25;;;;;6.35;100.00;102832.50;5029160;28;53390;-79
2023/12/19 03:49:07;;;;;;;;;18.75;18.25;;;;;6.38;100.00;102826.41;5015527;28;45452;-78
2023/12/19 03:51:32;;;;;;;;;20.75;18.25;;;;;6.27;100.00;102802.72;4996625;28;45348;-79
2023/12/19 03:53:58;;;;;;;;;19.00;16.50;;;;;6.39;100.00;102823.78;5019393;28;45338;-79
2023/12/19 03:56:23;;;;;;;;;19.75;17.00;;;;;6.41;100.00;102808.91;5002979;28;47238;-79
2023/12/19 03:58:49;;;;;;;;;23.00;18.67;;;;;6.37;100.00;102807.13;5005191;28;45366;-79
2023/12/19 04:01:17;;;;;;;;;22.75;18.00;;;;;6.42;100.00;102808.00;5000313;28;45634;-79
2023/12/19 04:03:45;;;;;;;;;18.67;14.00;;;;;6.39;100.00;102791.34;5002304;28;45524;-78
2023/12/19 04:06:10;;;;;;;;;23.75;18.00;;;;;6.45;100.00;102794.00;5016239;28;46437;-78
2023/12/19 04:08:36;;;;;;;;;23.00;20.25;;;;;6.46;100.00;102791.38;5019944;28;45415;-78
2023/12/19 04:11:01;;;;;;;;;23.50;20.25;;;;;6.43;100.00;102769.47;5019082;28;45353;-79
2023/12/19 04:13:27;;;;;;;;;22.67;19.67;;;;;6.48;100.00;102770.38;5020000;28;45352;-79
2023/12/19 04:15:52;;;;;;;;;24.25;21.50;;;;;6.49;100.00;102751.06;5019952;28;45872;-80
2023/12/19 04:18:18;;;;;;;;;18.50;17.25;;;;;6.37;100.00;102730.94;5016330;28;45443;-79
2023/12/19 04:20:43;;;;;;;;;26.25;17.00;;;;;6.40;100.00;102720.41;5018399;28;45443;-79
2023/12/19 04:23:09;;;;;;;;;23.33;17.00;;;;;6.35;100.00;102722.16;5019095;28;45386;-79
2023/12/19 04:25:35;;;;;;;;;25.25;21.75;;;;;6.40;100.00;102751.97;5019341;28;45385;-79
2023/12/19 04:28:00;;;;;;;;;25.67;21.33;;;;;6.48;100.00;102738.81;4994863;28;45269;-79
2023/12/19 04:30:26;;;;;;;;;19.75;17.75;;;;;6.43;100.00;102741.44;4997817;28;45246;-79
2023/12/19 04:32:52;;;;;;;;;22.50;18.00;;;;;6.45;100.00;102730.91;5010679;28;45390;-80
2023/12/19 04:35:17;;;;;;;;;23.75;22.50;;;;;6.42;100.00;102731.78;5001156;28;48460;-78
2023/12/19 04:37:43;;;;;;;;;19.75;19.75;;;;;6.49;100.00;102743.19;5018356;28;45346;-79
2023/12/19 04:40:08;;;;;;;;;24.00;21.67;;;;;6.39;100.00;102733.53;5018753;28;45302;-79
2023/12/19 04:42:33;;;;;;;;;23.00;22.50;;;;;6.39;100.00;102729.16;5014720;28;45473;-79
2023/12/19 04:44:59;;;;;;;;;23.75;19.75;;;;;6.35;100.00;102732.66;5002356;28;46580;-79
2023/12/19 04:47:26;;;;;;;;;20.67;17.33;;;;;6.49;100.00;102737.94;5018294;28;45550;-79
2023/12/19 04:49:52;;;;;;;;;17.00;17.00;;;;;6.31;100.00;102702.03;5025062;28;45527;-78
2023/12/19 04:52:17;;;;;;;;;18.50;17.50;;;;;6.44;100.00;102724.81;5022251;28;45589;-79
2023/12/19 04:54:42;;;;;;;;;23.25;20.50;;;;;6.39;100.00;102709.88;5021882;28;56336;-79
2023/12/19 04:57:08;;;;;;;;;21.50;21.25;;;;;6.55;100.00;102730.94;5022488;28;45473;-79
2023/12/19 04:59:33;;;;;;;;;18.25;17.25;;;;;6.55;100.00;102722.16;5011560;28;45480;-79
2023/12/19 05:01:58;;;;;;;;;20.33;18.33;;;;;6.52;100.00;102711.66;5013557;28;45485;-79
2023/12/19 05:04:24;;;;;;;;;24.00;21.67;;;;;6.60;100.00;102733.56;5015518;28;45307;-78
2023/12/19 05:06:49;;;;;;;;;25.67;17.33;;;;;6.52;100.00;102698.50;5019079;28;45386;-79
2023/12/19 05:09:14;;;;;;;;;19.33;16.67;;;;;6.52;100.00;102709.00;5005404;28;45297;-78
2023/12/19 05:11:44;;;;;;;;;19.67;16.00;;;;;6.62;100.00;102726.53;5014192;28;45223;-78
2023/12/19 05:14:09;;;;;;;;;19.00;17.67;;;;;6.54;100.00;102721.31;4995923;28;46212;-79
2023/12/19 05:16:34;;;;;;;;;20.67;16.33;;;;;6.54;100.00;102712.53;5002593;28;45828;-79
2023/12/19 05:19:00;;;;;;;;;20.50;14.25;;;;;6.57;100.00;102707.28;5021322;28;45464;-79
2023/12/19 05:21:25;;;;;;;;;22.50;18.00;;;;;6.44;100.00;102688.00;5018422;28;45898;-79
2023/12/19 05:23:50;;;;;;;;;20.25;19.00;;;;;6.64;100.00;102715.16;5019299;28;46196;-79
2023/12/19 05:26:16;;;;;;;;;24.00;18.00;;;;;6.53;100.00;102677.50;5018293;28;45539;-79
2023/12/19 05:28:41;;;;;;;;;23.25;18.25;;;;;6.60;100.00;102689.75;4994164;28;45792;-79
2023/12/19 05:31:10;;;;;;;;;18.33;18.33;;;;;6.66;100.00;102683.59;5017452;28;57409;-79
2023/12/19 05:33:35;;;;;;;;;20.00;20.00;;;;;6.69;100.00;102687.13;5018733;28;45616;-79
2023/12/19 05:36:01;;;;;;;;;22.50;18.75;;;;;6.67;100.00;102694.13;5017786;28;45380;-79
2023/12/19 05:38:27;;;;;;;;;26.25;20.25;;;;;6.59;100.00;102681.84;5004459;28;45317;-79
2023/12/19 05:40:57;;;;;;;;;24.00;18.50;;;;;6.72;100.00;102709.88;5003964;28;45492;-79
2023/12/19 05:43:23;;;;;;;;;25.00;21.25;;;;;6.66;100.00;102699.38;5012217;28;45510;-78
2023/12/19 05:45:48;;;;;;;;;26.50;23.75;;;;;6.71;100.00;102719.53;4999770;28;45346;-79
2023/12/19 05:48:14;;;;;;;;;23.00;17.25;;;;;6.61;100.00;102703.78;5000456;28;46272;-79
2023/12/19 05:50:39;;;;;;;;;21.67;18.33;;;;;6.72;100.00;102733.56;5020090;28;46101;-79
2023/12/19 05:53:04;;;;;;;;;19.33;17.67;;;;;6.72;100.00;102709.88;5019819;28;45632;-79
2023/12/19 05:55:29;;;;;;;;;18.33;16.33;;;;;6.70;100.00;102699.41;5006260;28;45326;-79
2023/12/19 05:57:58;;;;;;;;;17.00;15.00;;;;;6.68;100.00;102702.88;5019553;28;47413;-78
2023/12/19 06:00:23;;;;;;;;;23.33;18.33;;;;;6.72;100.00;102707.25;5002242;28;45635;-79
2023/12/19 06:02:50;;;;;;;;;18.00;13.67;;;;;6.76;100.00;102702.00;5015970;28;46013;-79
2023/12/19 06:05:16;;;;;;;;;20.00;17.33;;;;;6.62;100.00;102666.97;5003376;28;45424;-79
2023/12/19 06:07:42;;;;;;;;;18.75;15.75;;;;;6.77;100.00;102685.34;4993916;28;45525;-78
2023/12/19 06:10:08;;;;;;;;;20.00;14.25;;;;;6.86;100.00;102694.09;5008592;28;45491;-79
2023/12/19 06:12:34;;;;;;;;;19.50;16.50;;;;;6.81;100.00;102691.47;5020246;28;47474;-82
2023/12/19 06:14:59;;;;;;;;;20.25;16.50;;;;;6.92;100.00;102713.38;5020837;28;45364;-82
2023/12/19 06:17:29;;;;;;;;;18.67;15.33;;;;;6.85;100.00;102697.59;4991018;28;45398;-83
2023/12/19 06:19:55;;;;;;;;;19.67;17.67;;;;;6.89;100.00;102701.97;5002913;28;45468;-82
2023/12/19 06:22:20;;;;;;;;;17.33;15.33;;;;;6.95;100.00;102712.50;5019285;28;46450;-82
2023/12/19 06:24:45;;;;;;;;;18.50;16.50;;;;;7.00;100.00;102723.91;5020184;28;54931;-81
2023/12/19 06:27:15;;;;;;;;;28.33;19.00;;;;;6.90;100.00;102707.25;5013684;28;45400;-82
2023/12/19 06:29:41;;;;;;;;;22.33;18.33;;;;;6.93;100.00;102703.75;5019361;28;45405;-82
2023/12/19 06:32:09;;;;;;;;;16.67;15.00;;;;;6.97;100.00;102701.06;5016982;28;45416;-81
2023/12/19 06:34:35;;;;;;;;;26.00;17.33;;;;;7.03;100.00;102708.97;5012717;28;45418;-81
2023/12/19 06:37:00;;;;;;;;;26.25;18.00;;;;;6.95;100.00;102701.97;5016373;28;45688;-82
2023/12/19 06:39:25;;;;;;;;;31.33;19.33;;;;;7.01;100.00;102715.97;5020452;28;45388;-82
2023/12/19 06:41:51;;;;;;;;;22.33;18.67;;;;;6.96;100.00;102707.25;5026767;28;55427;-81
2023/12/19 06:44:16;;;;;;;;;20.67;18.00;;;;;6.97;100.00;102698.44;5034007;28;45301;-82
2023/12/19 06:46:42;;;;;;;;;18.75;17.50;;;;;6.85;100.00;102676.56;5014586;28;45381;-82
2023/12/19 06:49:07;;;;;;;;;22.25;17.25;;;;;6.88;100.00;102673.91;5021463;28;45522;-82
2023/12/19 06:51:33;;;;;;;;;23.33;17.67;;;;;6.96;100.00;102691.47;5013760;28;64073;-81
2023/12/19 06:53:58;;;;;;;;;20.50;19.25;;;;;6.87;100.00;102670.44;5014693;28;45405;-81
2023/12/19 06:56:26;;;;;;;;;25.00;17.75;;;;;6.82;100.00;102672.19;5000293;28;45484;-81
2023/12/19 06:58:52;;;;;;;;;28.00;21.50;;;;;6.97;100.00;102689.72;5020588;28;45306;-81
2023/12/19 07:01:18;;;;;;;;;22.33;18.67;;;;;6.85;100.00;102659.03;5018802;28;45224;-82
2023/12/19 07:03:44;;;;;;;;;27.00;22.75;;;;;7.00;100.00;102671.28;5018356;28;45277;-81
2023/12/19 07:06:13;;;;;;;;;22.75;17.25;;;;;6.86;100.00;102633.63;5020564;28;45299;-81
2023/12/19 07:08:39;;;;;;;;;28.50;21.00;;;;;6.90;100.00;102638.88;5003282;28;45508;-82
2023/12/19 07:11:07;;;;;;;;;19.00;17.25;;;;;6.91;100.00;102632.72;5001630;28;47555;-80
2023/12/19 07:13:33;;;;;;;;;18.67;16.00;;;;;6.99;100.00;102649.38;4999946;28;45373;-81
2023/12/19 07:15:58;;;;;;;;;21.00;17.50;;;;;6.84;100.00;102612.56;5020229;28;45376;-81
2023/12/19 07:18:23;;;;;;;;;22.67;18.00;;;;;6.99;100.00;102638.84;5019693;28;45438;-80
2023/12/19 07:20:49;;;;;;;;;24.00;19.00;;;;;6.86;100.00;102615.19;5001986;28;47324;-81
2023/12/19 07:23:14;;;;;;;;;26.50;20.50;;;;;6.91;100.00;102619.56;5000174;28;45512;-81
2023/12/19 07:25:40;;;;;;;;;24.00;18.75;;;;;7.03;100.00;102644.97;5020578;28;45663;-81
2023/12/19 07:28:06;;;;;;;;;21.00;18.50;;;;;6.97;100.00;102629.22;5018805;28;45394;-81
2023/12/19 07:30:31;;;;;;;;;19.00;13.75;;;;;6.86;100.00;102609.94;5023817;28;45361;-81
2023/12/19 07:32:59;;;;;;;;;20.75;19.00;;;;;7.00;100.00;102639.72;5003353;28;45578;-81
2023/12/19 07:35:24;;;;;;;;;16.25;16.25;;;;;7.03;100.00;102647.59;4994490;28;45484;-81
2023/12/19 07:37:49;;;;;;;;;18.67;16.00;;;;;7.00;100.00;102635.31;5012609;28;45342;-82
2023/12/19 07:40:14;;;;;;;;;15.00;13.00;;;;;7.03;100.00;102640.59;5021629;28;51600;-81
2023/12/19 07:42:41;;;;;;;;;17.33;14.33;;;;;7.04;100.00;102641.44;5001982;28;45340;-81
2023/12/19 07:45:06;;;;;;;;;16.67;16.67;;;;;7.06;100.00;102637.94;4993942;28;45330;-81
2023/12/19 07:47:32;;;;;;;;;18.25;18.00;;;;;7.03;100.00;102624.81;5017354;28;45255;-82
2023/12/19 07:49:57;;;;;;;;;25.33;18.67;;;;;7.06;100.00;102624.78;5018702;28;45310;-82
2023/12/19 07:52:23;;;;;;;;;22.67;15.33;;;;;7.07;100.00;102618.63;5019211;28;45460;-81
2023/12/19 07:54:50;;;;;;;;;19.00;14.50;;;;;7.00;100.00;102602.88;5007413;28;45339;-81
2023/12/19 07:57:16;;;;;;;;;17.25;16.00;;;;;6.92;100.00;102584.50;4984916;28;45532;-81
2023/12/19 07:59:41;;;;;;;;;18.00;17.25;;;;;6.91;100.00;102585.38;5018607;28;47656;-80
2023/12/19 08:02:07;;;;;;;;;20.67;16.00;;;;;7.05;100.00;102609.00;5004803;28;45918;-83
2023/12/19 08:04:34;;;;;;;;;21.25;18.00;;;;;7.10;100.00;102609.88;5011188;28;45566;-81
2023/12/19 08:06:59;;;;;;;;;12.67;12.67;;;;;7.04;100.00;102601.97;5002043;28;45417;-81
2023/12/19 08:09:26;;;;;;;;;19.75;16.75;;;;;7.01;100.00;102588.84;5015129;28;46072;-81
2023/12/19 08:11:51;;;;;;;;;20.25;12.75;;;;;7.10;100.00;102608.09;5020398;28;45239;-82
2023/12/19 08:14:17;;;;;;;;;18.67;15.33;;;;;7.15;100.00;102610.72;4995717;28;45325;-82
2023/12/19 08:16:42;;;;;;;;;23.00;17.67;;;;;7.12;100.00;102608.09;5000853;28;45322;-81
2023/12/19 08:19:07;;;;;;;;;30.25;19.50;;;;;7.16;100.00;102604.59;5016574;28;57156;-81
2023/12/19 08:21:33;;;;;;;;;21.75;18.50;;;;;7.04;100.00;102588.81;5000966;28;45707;-81
2023/12/19 08:23:58;;;;;;;;;16.67;15.33;;;;;7.16;100.00;102604.59;5014124;28;45515;-81
2023/12/19 08:26:24;;;;;;;;;22.75;17.25;;;;;7.25;100.00;102620.31;5005913;28;45465;-81
2023/12/19 08:28:52;;;;;;;;;20.67;17.00;;;;;7.29;100.00;102616.81;5010517;28;45389;-82
2023/12/19 08:31:17;;;;;;;;;18.00;18.00;;;;;7.24;100.00;102602.78;5003116;28;45519;-80
2023/12/19 08:33:43;;;;;;;;;23.00;20.50;;;;;7.15;100.00;102585.28;5011039;28;45596;-81
2023/12/19 08:36:09;;;;;;;;;19.00;17.67;;;;;7.33;100.00;102616.75;5002405;28;45445;-81
2023/12/19 08:38:34;;;;;;;;;23.50;18.25;;;;;7.20;100.00;102590.50;5010628;28;45700;-81
2023/12/19 08:41:00;;;;;;;;;22.00;15.00;;;;;7.29;100.00;102609.78;5002067;28;45323;-81
2023/12/19 08:43:25;;;;;;;;;26.00;19.00;;;;;7.35;100.00;102608.88;5018857;28;45837;-81
2023/12/19 08:45:53;;;;;;;;;17.50;15.50;;;;;7.34;100.00;102605.34;5018821;28;45365;-81
2023/12/19 08:48:21;;;;;;;;;24.00;19.75;;;;;7.29;100.00;102578.19;4992796;28;45356;-81
2023/12/19 08:50:46;;;;;;;;;16.67;16.67;;;;;7.33;100.00;102589.56;4999076;28;45542;-81
2023/12/19 08:53:12;;;;;;;;;17.00;13.67;;;;;7.44;100.00;102602.66;4999198;28;45780;-80
2023/12/19 08:55:39;;;;;;;;;15.00;14.33;;;;;7.33;100.00;102573.78;5001955;28;45509;-81
2023/12/19 08:58:04;;;;;;;;;19.33;18.00;;;;;7.29;100.00;102565.03;5000234;28;45387;-80
2023/12/19 09:00:30;;;;;;;;;23.67;18.67;;;;;7.46;100.00;102587.75;5019841;28;49550;-82
2023/12/19 09:02:55;;;;;;;;;15.00;13.33;;;;;7.47;100.00;102576.31;4999641;28;45335;-82
2023/12/19 09:05:21;;;;;;;;;18.00;16.33;;;;;7.37;100.00;102554.44;5025077;28;45277;-82
2023/12/19 09:07:47;;;;;;;;;18.33;13.33;;;;;7.43;100.00;102551.78;5009965;28;46840;-81
2023/12/19 09:10:13;;;;;;;;;18.00;17.00;;;;;7.47;100.00;102552.63;5019113;28;45321;-82
2023/12/19 09:12:39;;;;;;;;;18.00;16.00;;;;;7.59;100.00;102560.47;5020037;28;45442;-82
2023/12/19 09:15:06;;;;;;;;;17.00;13.67;;;;;7.60;100.00;102554.31;5001357;28;45373;-82
2023/12/19 09:17:31;;;;;;;;;18.67;18.00;;;;;7.52;100.00;102530.69;5000075;28;46757;-82
2023/12/19 09:19:57;;;;;;;;;24.33;20.33;;;;;7.67;100.00;102558.66;5020609;28;45517;-81
2023/12/19 09:22:22;;;;;;;;;16.67;11.00;;;;;7.64;100.00;102551.66;5007198;28;45355;-82
2023/12/19 09:24:48;;;;;;;;;17.67;16.67;;;;;7.70;100.00;102556.88;5023281;28;45402;-82
2023/12/19 09:27:13;;;;;;;;;17.33;15.67;;;;;7.66;100.00;102547.22;5003050;28;56261;-82
2023/12/19 09:29:40;;;;;;;;;18.33;17.33;;;;;7.72;100.00;102560.34;5031059;28;45365;-81
2023/12/19 09:32:07;;;;;;;;;15.33;13.33;;;;;7.71;100.00;102574.44;5018945;28;46205;-81
2023/12/19 09:34:40;;;;;;;;;15.00;13.00;;;;;7.65;100.00;102548.13;5019438;28;45381;-82
2023/12/19 09:37:05;;;;;;;;;20.33;16.33;;;;;7.73;100.00;102550.69;5000097;28;48123;-81
2023/12/19 09:39:31;;;;;;;;;17.00;14.67;;;;;7.65;100.00;102540.25;4996868;28;45278;-81
2023/12/19 09:41:56;;;;;;;;;23.33;13.00;;;;;7.81;100.00;102552.41;4999478;28;45326;-81
2023/12/19 09:44:23;;;;;;;;;14.67;13.00;;;;;7.88;100.00;102561.97;5015489;28;45471;-81
2023/12/19 09:46:51;;;;;;;;;20.00;16.33;;;;;7.86;100.00;102558.50;5019488;28;46271;-81
2023/12/19 09:49:39;;;;;;;;;18.67;16.33;;;;;7.96;100.00;102567.19;5010874;28;45429;-81
2023/12/19 09:52:06;;;;;;;;;14.67;14.67;;;;;7.94;100.00;102561.06;5003958;28;45381;-81
2023/12/19 09:54:32;;;;;;;;;15.00;12.67;;;;;7.87;100.00;102533.03;5004165;28;45587;-81
2023/12/19 09:56:59;;;;;;;;;17.67;14.67;;;;;8.03;100.00;102557.47;5022953;28;45376;-82
2023/12/19 09:59:26;;;;;;;;;18.67;16.33;;;;;8.03;100.00;102550.47;5009881;28;45341;-82
2023/12/19 10:01:53;;;;;;;;;17.00;15.33;;;;;8.08;100.00;102560.97;5004868;28;45401;-82
2023/12/19 10:04:21;;;;;;;;;11.00;11.00;;;;;8.10;100.00;102549.53;5015030;28;45436;-82
2023/12/19 10:07:01;;;;;;;;;19.67;18.33;;;;;8.07;100.00;102536.38;5022393;28;45431;-80
2023/12/19 10:09:27;;;;;;;;;14.00;14.00;;;;;8.19;100.00;102540.63;4993282;28;45302;-82
2023/12/19 10:12:09;;;;;;;;;18.67;15.00;;;;;8.04;100.00;102504.78;5021548;28;45326;-81
2023/12/19 10:14:40;;;;;;;;;13.67;12.67;;;;;8.27;100.00;102528.28;5027080;28;45381;-81
2023/12/19 10:17:17;;;;;;;;;15.33;13.00;;;;;8.27;100.00;102492.25;5025593;28;45443;-82
2023/12/19 10:19:43;;;;;;;;;15.67;15.00;;;;;8.40;100.00;102495.66;5004685;28;45410;-81
2023/12/19 10:22:16;;;;;;;;;17.00;13.67;;;;;8.58;100.00;102519.16;5003959;28;45536;-81
2023/12/19 10:24:48;;;;;;;;;20.00;15.33;;;;;8.63;100.00;102516.47;5019455;28;45361;-82
2023/12/19 10:27:13;;;;;;;;;18.00;15.33;;;;;8.67;100.00;102508.50;5003989;28;47053;-81
2023/12/19 10:29:38;;;;;;;;;20.33;12.33;;;;;8.69;100.00;102506.75;5021446;28;45440;-81
2023/12/19 10:32:19;;;;;;;;;15.67;14.00;;;;;8.67;100.00;102489.19;5003128;28;45402;-81
2023/12/19 10:34:45;;;;;;;;;22.00;15.00;;;;;8.73;100.00;102494.38;5021706;28;45648;-81
2023/12/19 10:37:12;;;;;;;;;20.00;13.00;;;;;8.66;100.00;102479.53;5004525;28;46982;-81
2023/12/19 10:39:44;;;;;;;;;17.33;14.00;;;;;8.74;100.00;102499.63;4997430;28;45563;-82
2023/12/19 10:42:10;;;;;;;;;18.67;16.33;;;;;8.60;100.00;102474.31;5028670;28;45431;-82
2023/12/19 10:44:40;;;;;;;;;19.00;16.00;;;;;8.62;100.00;102488.34;5020306;28;45469;-82
2023/12/19 10:47:11;;;;;;;;;19.33;15.67;;;;;8.56;100.00;102472.63;5001895;28;46417;-82
2023/12/19 10:49:38;;;;;;;;;19.67;15.33;;;;;8.55;100.00;102468.22;5020368;28;45478;-82
2023/12/19 10:52:16;;;;;;;;;;;;;;;;;;;;;
2023/12/19 10:54:45;;;;;;;;;17.33;16.00;;;;;8.60;100.00;102467.28;5020194;28;72825;-82
2023/12/19 10:57:23;;;;;;;;;13.67;12.67;;;;;8.52;100.00;102447.16;5019788;28;45428;-81
2023/12/19 10:59:58;;;;;;;;;13.00;13.00;;;;;8.60;100.00;102453.22;4989310;28;45495;-81
2023/12/19 11:02:45;;;;;;;;;16.00;15.00;;;;;8.67;100.00;102455.75;5006526;28;45900;-81
2023/12/19 11:05:23;;;;;;;;;15.67;12.67;;;;;8.66;100.00;102455.78;4989225;28;45394;-79
2023/12/19 11:07:50;;;;;;;;;8.33;8.00;;;;;8.53;100.00;102423.44;5021291;28;45334;-81